createdAt,value
2023-01-02T00:06:08.284Z,31.00
2023-01-02T00:21:12.648Z,35.73
2023-01-02T00:36:17.509Z,30.70
2023-01-02T00:51:21.689Z,32.43
2023-01-02T01:06:26.089Z,32.97
2023-01-02T01:21:30.485Z,35.63
2023-01-02T01:36:37.221Z,33.60
2023-01-02T01:51:53.399Z,30.07
2023-01-02T02:06:58.156Z,28.37
2023-01-02T02:22:20.366Z,33.20
2023-01-02T02:37:35.193Z,35.40
2023-01-02T02:52:46.399Z,35.20
2023-01-02T03:07:54.303Z,40.13
2023-01-02T03:23:01.759Z,36.77
2023-01-02T03:38:08.997Z,32.20
2023-01-02T03:53:14.001Z,37.70
2023-01-02T04:08:26.227Z,32.83
2023-01-02T04:23:51.698Z,27.30
2023-01-02T04:38:55.816Z,28.23
2023-01-02T04:54:00.395Z,27.57
2023-01-02T05:09:04.629Z,39.23
2023-01-02T05:24:09.001Z,42.20
2023-01-02T05:39:14.446Z,35.93
2023-01-02T05:54:19.145Z,36.63
2023-01-02T06:09:23.519Z,33.83
2023-01-02T06:24:28.679Z,33.43
2023-01-02T06:39:33.890Z,34.90
2023-01-02T06:54:37.999Z,35.97
2023-01-02T07:09:42.282Z,43.23
2023-01-02T07:24:46.457Z,66.13
2023-01-02T07:39:50.611Z,81.40
2023-01-02T07:54:55.000Z,87.03
2023-01-02T08:09:59.472Z,84.43
2023-01-02T08:25:04.588Z,71.40
2023-01-02T08:40:08.991Z,83.30
2023-01-02T08:55:14.250Z,85.73
2023-01-02T09:10:18.645Z,78.13
2023-01-02T09:25:24.508Z,74.10
2023-01-02T09:40:29.857Z,65.83
2023-01-02T09:55:34.453Z,44.47
2023-01-02T10:10:45.683Z,47.67
2023-01-02T10:25:55.275Z,60.97
2023-01-02T10:41:00.834Z,58.97
2023-01-02T10:56:21.342Z,66.00
2023-01-02T11:11:27.187Z,60.60
2023-01-02T11:26:32.671Z,55.87
2023-01-02T11:41:56.253Z,61.60
2023-01-02T11:57:01.064Z,52.03
2023-01-02T12:12:05.148Z,56.77
2023-01-02T12:27:27.366Z,60.03
2023-01-02T12:42:34.113Z,60.53
2023-01-02T12:57:38.681Z,58.40
2023-01-02T13:12:44.075Z,55.10
2023-01-02T13:27:50.026Z,50.90
2023-01-02T13:43:01.290Z,53.10
2023-01-02T13:58:14.962Z,47.17
2023-01-02T14:13:22.201Z,42.40
2023-01-02T14:28:27.374Z,46.80
2023-01-02T14:43:37.206Z,48.27
2023-01-02T14:58:42.785Z,48.57
2023-01-02T15:14:05.676Z,45.17
2023-01-02T15:29:34.246Z,52.20
2023-01-02T15:44:58.194Z,52.60
2023-01-02T16:00:02.518Z,30.20
2023-01-02T16:15:11.202Z,32.13
2023-01-02T16:30:37.415Z,30.53
2023-01-02T16:45:42.285Z,34.10
2023-01-02T17:00:50.023Z,36.77
2023-01-02T17:15:57.359Z,33.00
2023-01-02T17:31:04.337Z,38.23
2023-01-02T17:46:38.655Z,41.83
2023-01-02T18:01:34.838Z,39.00
2023-01-02T18:16:43.310Z,44.13
2023-01-02T18:31:47.830Z,49.17
2023-01-02T18:47:12.922Z,63.83
2023-01-02T19:02:35.132Z,42.50
2023-01-02T19:17:49.169Z,35.47
2023-01-02T19:32:58.913Z,39.00
2023-01-02T19:48:09.317Z,30.30
2023-01-02T20:03:18.553Z,31.93
2023-01-02T20:18:25.542Z,33.57
2023-01-02T20:33:29.818Z,37.30
2023-01-02T20:48:34.613Z,31.43
2023-01-02T21:03:38.667Z,28.87
2023-01-02T21:18:42.969Z,34.07
2023-01-02T21:33:47.645Z,33.80
2023-01-02T21:48:51.876Z,32.93
2023-01-02T22:03:57.985Z,30.30
2023-01-02T22:19:02.713Z,43.70
2023-01-02T22:34:07.127Z,36.53
2023-01-02T22:49:16.025Z,39.90
2023-01-02T23:04:25.419Z,38.57
2023-01-02T23:19:29.722Z,34.17
2023-01-02T23:34:33.875Z,39.13
2023-01-02T23:49:38.818Z,40.60
